createdAt,value
2019-03-16T00:00:40.002Z,12.37
2019-03-16T00:03:29.756Z,23.80
2019-03-16T00:06:19.395Z,19.27
2019-03-16T00:09:09.815Z,25.00
2019-03-16T00:11:59.826Z,19.52
2019-03-16T00:14:50.710Z,21.60
2019-03-16T00:17:40.572Z,18.27
2019-03-16T00:20:30.522Z,26.42
2019-03-16T00:23:20.943Z,16.97
2019-03-16T00:26:11.022Z,10.28
2019-03-16T00:29:00.698Z,25.40
2019-03-16T00:31:50.461Z,19.82
2019-03-16T00:34:40.396Z,21.23
2019-03-16T00:37:30.323Z,23.22
2019-03-16T00:40:20.246Z,18.92
2019-03-16T00:43:10.076Z,9.70
2019-03-16T00:46:00.194Z,14.75
2019-03-16T00:48:50.375Z,22.62
2019-03-16T00:51:40.285Z,20.62
2019-03-16T00:54:29.735Z,22.13
2019-03-16T00:57:19.822Z,17.57
2019-03-16T01:00:10.733Z,20.55
2019-03-16T01:03:00.613Z,19.90
2019-03-16T01:05:50.308Z,14.33
2019-03-16T01:08:40.175Z,28.20
2019-03-16T01:11:29.952Z,20.52
2019-03-16T01:14:19.812Z,15.90
2019-03-16T01:17:09.945Z,17.73
2019-03-16T01:20:00.026Z,18.67
2019-03-16T01:22:49.731Z,16.02
2019-03-16T01:25:39.672Z,23.92
2019-03-16T01:28:29.772Z,14.65
2019-03-16T01:31:55.887Z,25.82
2019-03-16T01:34:45.353Z,25.25
2019-03-16T01:37:35.082Z,18.57
2019-03-16T01:40:25.432Z,19.07
2019-03-16T01:43:15.323Z,21.42
2019-03-16T01:46:05.392Z,18.30
2019-03-16T01:48:55.265Z,19.62
2019-03-16T01:51:44.815Z,17.98
2019-03-16T01:54:34.631Z,13.05
2019-03-16T01:57:24.291Z,23.05
2019-03-16T02:00:14.325Z,16.37
2019-03-16T02:03:04.117Z,20.75
2019-03-16T02:05:53.632Z,16.40
2019-03-16T02:08:44.557Z,37.40
2019-03-16T02:11:34.541Z,22.30
2019-03-16T02:14:24.742Z,34.58
2019-03-16T02:17:14.644Z,17.30
2019-03-16T02:20:04.816Z,20.15
2019-03-16T02:22:54.586Z,22.52
2019-03-16T02:25:44.465Z,17.07
2019-03-16T02:28:34.365Z,21.77
2019-03-16T02:31:24.032Z,31.05
2019-03-16T02:34:13.773Z,20.88
2019-03-16T02:37:03.483Z,21.82
2019-03-16T02:39:53.466Z,18.48
2019-03-16T02:42:43.516Z,23.55
2019-03-16T02:45:33.234Z,24.30
2019-03-16T02:48:23.226Z,22.62
2019-03-16T02:51:13.015Z,27.17
2019-03-16T02:54:03.091Z,20.55
2019-03-16T02:56:52.972Z,19.05
2019-03-16T02:59:42.373Z,18.07
2019-03-16T03:02:32.116Z,14.63
2019-03-16T03:05:22.204Z,23.40
2019-03-16T03:08:12.189Z,23.95
2019-03-16T03:11:02.356Z,20.05
2019-03-16T03:13:52.252Z,26.70
2019-03-16T03:16:42.246Z,33.53
2019-03-16T03:19:31.816Z,20.77
2019-03-16T03:22:21.713Z,11.22
2019-03-16T03:25:11.894Z,15.50
2019-03-16T03:28:01.953Z,20.48
2019-03-16T03:30:51.887Z,18.07
2019-03-16T03:33:59.265Z,26.75
2019-03-16T03:36:32.769Z,31.65
2019-03-16T03:39:26.948Z,13.80
2019-03-16T03:42:17.115Z,17.48
2019-03-16T03:45:06.880Z,20.88
2019-03-16T03:47:56.286Z,28.20
2019-03-16T03:50:46.147Z,14.63
2019-03-16T03:53:36.058Z,27.17
2019-03-16T03:56:25.673Z,23.35
2019-03-16T03:59:16.503Z,24.75
2019-03-16T04:02:06.661Z,24.63
2019-03-16T04:04:56.479Z,33.70
2019-03-16T04:07:46.349Z,13.18
2019-03-16T04:10:35.845Z,22.55
2019-03-16T04:13:25.515Z,19.05
2019-03-16T04:16:15.384Z,17.98
2019-03-16T04:19:05.698Z,16.10
2019-03-16T04:21:55.464Z,17.77
2019-03-16T04:24:45.708Z,17.90
2019-03-16T04:27:35.834Z,15.68
2019-03-16T04:30:25.733Z,18.50
2019-03-16T04:33:15.398Z,19.95
2019-03-16T04:36:04.987Z,24.87
2019-03-16T04:38:55.172Z,27.13
2019-03-16T04:41:45.084Z,22.22
2019-03-16T04:44:35.262Z,28.60
2019-03-16T04:47:25.272Z,26.65
2019-03-16T04:50:15.295Z,35.13
2019-03-16T04:53:05.425Z,18.57
2019-03-16T04:55:55.370Z,17.25
2019-03-16T04:58:45.506Z,13.68
2019-03-16T05:01:35.362Z,20.50
2019-03-16T05:04:25.175Z,25.45
2019-03-16T05:07:15.033Z,22.40
2019-03-16T05:10:07.221Z,20.48
2019-03-16T05:12:57.577Z,21.70
2019-03-16T05:15:50.634Z,23.60
2019-03-16T05:18:38.854Z,17.42
2019-03-16T05:21:28.931Z,20.17
2019-03-16T05:24:18.815Z,20.35
2019-03-16T05:27:08.496Z,18.37
2019-03-16T05:29:58.099Z,16.97
2019-03-16T05:32:47.632Z,21.00
2019-03-16T05:35:38.040Z,29.87
2019-03-16T05:38:28.732Z,18.65
2019-03-16T05:41:18.435Z,16.62
2019-03-16T05:44:08.093Z,24.82
2019-03-16T05:46:57.805Z,14.25
2019-03-16T05:49:47.256Z,28.85
2019-03-16T05:52:37.275Z,27.32
2019-03-16T05:55:27.315Z,23.05
2019-03-16T05:58:17.025Z,21.37
2019-03-16T06:01:06.785Z,19.42
2019-03-16T06:03:57.804Z,22.15
2019-03-16T06:06:47.443Z,19.60
2019-03-16T06:09:38.366Z,28.80
2019-03-16T06:12:28.745Z,16.82
2019-03-16T06:15:18.315Z,22.70
2019-03-16T06:18:08.286Z,22.90
2019-03-16T06:20:58.333Z,22.70
2019-03-16T06:23:47.886Z,24.52
2019-03-16T06:26:38.213Z,17.48
2019-03-16T06:29:28.085Z,22.37
2019-03-16T06:32:18.119Z,48.02
2019-03-16T06:35:07.782Z,25.30
2019-03-16T06:37:57.893Z,30.25
2019-03-16T06:40:48.236Z,16.25
2019-03-16T06:43:37.794Z,27.30
2019-03-16T06:46:27.653Z,31.45
2019-03-16T06:49:17.805Z,19.92
2019-03-16T06:52:07.686Z,23.30
2019-03-16T06:54:57.557Z,28.60
2019-03-16T06:57:47.554Z,25.90
2019-03-16T07:00:37.634Z,30.72
2019-03-16T07:03:27.815Z,17.23
2019-03-16T07:06:17.601Z,22.32
2019-03-16T07:09:08.905Z,28.87
2019-03-16T07:11:58.888Z,17.67
2019-03-16T07:14:48.863Z,21.42
2019-03-16T07:17:38.848Z,24.95
2019-03-16T07:20:31.756Z,28.90
2019-03-16T07:23:21.769Z,18.87
2019-03-16T07:26:15.155Z,25.05
2019-03-16T07:29:02.569Z,19.90
2019-03-16T07:31:52.444Z,16.62
2019-03-16T07:34:42.268Z,23.95
2019-03-16T07:37:35.305Z,20.57
2019-03-16T07:40:24.965Z,25.77
2019-03-16T07:43:15.141Z,25.05
2019-03-16T07:46:05.035Z,23.32
2019-03-16T07:48:55.144Z,21.35
2019-03-16T07:51:45.092Z,28.95
2019-03-16T07:54:34.572Z,17.85
2019-03-16T07:57:24.364Z,26.90
2019-03-16T08:00:14.534Z,34.30
2019-03-16T08:03:04.330Z,19.27
2019-03-16T08:05:53.902Z,14.53
2019-03-16T08:08:46.094Z,16.85
2019-03-16T08:11:34.682Z,10.95
2019-03-16T08:14:24.665Z,19.45
2019-03-16T08:17:14.012Z,27.30
2019-03-16T08:20:03.584Z,13.75
2019-03-16T08:22:53.894Z,14.70
2019-03-16T08:25:43.582Z,23.62
2019-03-16T08:28:33.172Z,30.30
2019-03-16T08:31:22.732Z,17.60
2019-03-16T08:34:12.623Z,21.07
2019-03-16T08:37:02.521Z,14.38
2019-03-16T08:39:53.251Z,21.80
2019-03-16T08:42:43.116Z,21.02
2019-03-16T08:45:32.662Z,20.75
2019-03-16T08:48:23.338Z,23.87
2019-03-16T08:51:15.524Z,20.72
2019-03-16T08:54:05.415Z,19.90
2019-03-16T08:56:55.218Z,16.32
2019-03-16T08:59:44.652Z,20.55
2019-03-16T09:02:34.646Z,21.15
2019-03-16T09:05:24.108Z,21.70
2019-03-16T09:08:13.771Z,20.02
2019-03-16T09:11:03.462Z,20.88
2019-03-16T09:13:53.131Z,11.22
2019-03-16T09:16:43.024Z,14.75
2019-03-16T09:19:32.804Z,17.80
2019-03-16T09:22:22.915Z,17.45
2019-03-16T09:25:15.849Z,9.10
2019-03-16T09:28:05.141Z,12.28
2019-03-16T09:30:56.502Z,14.95
2019-03-16T09:33:46.405Z,12.75
2019-03-16T09:36:36.358Z,9.95
2019-03-16T09:39:25.925Z,25.90
2019-03-16T09:42:15.751Z,17.00
2019-03-16T09:45:05.877Z,16.67
2019-03-16T09:47:55.566Z,12.25
2019-03-16T09:50:45.936Z,15.05
2019-03-16T09:53:35.431Z,10.43
2019-03-16T09:56:25.264Z,14.13
2019-03-16T09:59:15.383Z,9.23
2019-03-16T10:02:05.063Z,12.07
2019-03-16T10:04:54.743Z,14.87
2019-03-16T10:07:44.117Z,13.80
2019-03-16T10:10:33.955Z,15.60
2019-03-16T10:13:23.426Z,12.80
2019-03-16T10:16:13.265Z,9.93
2019-03-16T10:19:04.644Z,8.28
2019-03-16T10:21:54.760Z,15.40
2019-03-16T10:24:44.241Z,19.62
2019-03-16T10:27:33.910Z,11.73
2019-03-16T10:30:23.684Z,7.65
2019-03-16T10:33:13.703Z,8.75
2019-03-16T10:36:04.182Z,17.15
2019-03-16T10:38:54.166Z,10.50
2019-03-16T10:41:43.886Z,14.58
2019-03-16T10:44:33.654Z,19.98
2019-03-16T10:47:23.292Z,13.40
2019-03-16T10:50:13.055Z,8.55
2019-03-16T10:53:02.877Z,5.90
2019-03-16T10:55:53.075Z,21.10
2019-03-16T10:58:55.743Z,6.87
2019-03-16T11:01:34.463Z,9.15
2019-03-16T11:04:24.083Z,16.97
2019-03-16T11:07:13.839Z,8.23
2019-03-16T11:10:03.794Z,5.90
2019-03-16T11:12:53.415Z,19.35
2019-03-16T11:15:44.192Z,6.83
2019-03-16T11:18:33.967Z,10.10
2019-03-16T11:21:23.396Z,10.13
2019-03-16T11:24:13.265Z,9.58
2019-03-16T11:27:03.103Z,7.00
2019-03-16T11:29:53.102Z,4.55
2019-03-16T11:32:42.792Z,9.38
2019-03-16T11:35:32.555Z,5.83
2019-03-16T11:38:22.466Z,5.03
2019-03-16T11:41:12.145Z,11.68
2019-03-16T11:44:01.823Z,9.55
2019-03-16T11:46:51.583Z,17.15
2019-03-16T11:49:41.692Z,7.00
2019-03-16T11:52:31.851Z,9.70
2019-03-16T11:55:21.675Z,12.63
2019-03-16T11:58:11.644Z,12.75
2019-03-16T12:01:01.212Z,9.28
2019-03-16T12:03:51.014Z,12.63
2019-03-16T12:06:40.784Z,5.97
2019-03-16T12:09:30.360Z,7.72
2019-03-16T12:12:20.336Z,6.00
2019-03-16T12:15:10.521Z,7.42
2019-03-16T12:17:59.985Z,9.13
2019-03-16T12:20:49.702Z,6.53
2019-03-16T12:23:40.895Z,18.23
2019-03-16T12:26:31.054Z,5.35
2019-03-16T12:29:33.123Z,9.65
2019-03-16T12:32:12.738Z,3.27
2019-03-16T12:35:02.075Z,4.20
2019-03-16T12:37:51.846Z,6.28
2019-03-16T12:40:41.942Z,5.72
2019-03-16T12:43:32.035Z,7.53
2019-03-16T12:46:22.351Z,8.83
2019-03-16T12:49:12.033Z,5.33
2019-03-16T12:52:02.304Z,7.28
2019-03-16T12:54:51.957Z,10.23
2019-03-16T12:57:41.654Z,5.83
2019-03-16T13:00:31.752Z,7.22
2019-03-16T13:03:21.740Z,7.40
2019-03-16T13:06:11.625Z,8.45
2019-03-16T13:09:01.266Z,6.08
2019-03-16T13:11:52.845Z,7.55
2019-03-16T13:14:42.586Z,5.97
2019-03-16T13:17:32.305Z,5.40
2019-03-16T13:20:23.162Z,5.22
2019-03-16T13:23:12.666Z,9.08
2019-03-16T13:26:02.255Z,3.85
2019-03-16T13:28:52.126Z,8.28
2019-03-16T13:31:42.162Z,12.82
2019-03-16T13:34:31.810Z,9.70
2019-03-16T13:37:21.576Z,7.45
2019-03-16T13:40:12.383Z,6.28
2019-03-16T13:43:02.446Z,3.33
2019-03-16T13:45:52.377Z,2.80
2019-03-16T13:48:42.246Z,4.47
2019-03-16T13:51:32.222Z,3.05
2019-03-16T13:54:22.316Z,2.90
2019-03-16T13:57:12.383Z,8.48
2019-03-16T14:00:11.353Z,3.27
2019-03-16T14:02:54.104Z,3.20
2019-03-16T14:05:43.906Z,3.92
2019-03-16T14:08:33.698Z,2.77
2019-03-16T14:11:23.552Z,4.47
2019-03-16T14:14:13.624Z,5.47
2019-03-16T14:17:03.364Z,3.12
2019-03-16T14:19:53.222Z,4.40
2019-03-16T14:22:43.393Z,3.75
2019-03-16T14:25:33.505Z,4.83
2019-03-16T14:28:24.910Z,2.52
2019-03-16T14:31:15.294Z,3.00
2019-03-16T14:34:05.381Z,3.98
2019-03-16T14:36:57.406Z,3.60
2019-03-16T14:39:46.409Z,6.45
2019-03-16T14:42:36.263Z,5.22
2019-03-16T14:45:26.162Z,5.12
2019-03-16T14:48:15.634Z,7.03
2019-03-16T14:51:05.284Z,4.80
2019-03-16T14:53:54.890Z,5.17
2019-03-16T14:56:44.596Z,5.08
2019-03-16T14:59:34.223Z,6.12
2019-03-16T15:02:23.670Z,5.25
2019-03-16T15:05:14.025Z,9.15
2019-03-16T15:08:04.125Z,5.20
2019-03-16T15:10:53.745Z,4.25
2019-03-16T15:13:44.082Z,4.78
2019-03-16T15:16:34.141Z,5.60
2019-03-16T15:19:24.168Z,5.47
2019-03-16T15:22:14.130Z,3.50
2019-03-16T15:25:05.551Z,4.37
2019-03-16T15:27:55.157Z,3.12
2019-03-16T15:30:50.738Z,3.45
2019-03-16T15:33:36.623Z,3.87
2019-03-16T15:36:27.710Z,6.78
2019-03-16T15:39:17.981Z,3.72
2019-03-16T15:42:07.682Z,5.05
2019-03-16T15:44:57.405Z,3.55
2019-03-16T15:47:47.134Z,3.30
2019-03-16T15:50:36.955Z,7.15
2019-03-16T15:53:26.714Z,4.97
2019-03-16T15:56:16.327Z,4.80
2019-03-16T15:59:06.261Z,5.28
2019-03-16T16:01:56.164Z,4.25
2019-03-16T16:04:46.176Z,3.92
2019-03-16T16:07:36.052Z,8.70
2019-03-16T16:10:25.989Z,5.17
2019-03-16T16:13:15.705Z,5.00
2019-03-16T16:16:05.408Z,16.20
2019-03-16T16:18:55.152Z,6.62
2019-03-16T16:21:44.623Z,6.35
2019-03-16T16:24:34.633Z,6.80
2019-03-16T16:27:29.025Z,7.15
2019-03-16T16:30:18.695Z,6.30
2019-03-16T16:33:08.561Z,7.62
2019-03-16T16:35:58.165Z,9.05
2019-03-16T16:38:48.134Z,8.40
2019-03-16T16:41:37.603Z,8.73
2019-03-16T16:44:28.294Z,9.13
2019-03-16T16:47:18.236Z,9.83
2019-03-16T16:50:10.125Z,9.10
2019-03-16T16:53:00.415Z,13.28
2019-03-16T16:55:50.465Z,9.38
2019-03-16T16:58:40.356Z,10.95
2019-03-16T17:01:30.826Z,9.35
2019-03-16T17:04:21.782Z,11.83
2019-03-16T17:07:11.526Z,11.35
2019-03-16T17:10:01.575Z,13.10
2019-03-16T17:12:51.624Z,9.03
2019-03-16T17:15:42.084Z,12.90
2019-03-16T17:18:32.645Z,8.23
2019-03-16T17:21:22.294Z,12.47
2019-03-16T17:24:12.263Z,9.43
2019-03-16T17:27:02.083Z,13.53
2019-03-16T17:29:52.142Z,17.30
2019-03-16T17:32:44.295Z,14.98
2019-03-16T17:35:36.554Z,12.07
2019-03-16T17:38:26.397Z,18.52
2019-03-16T17:41:16.191Z,14.15
2019-03-16T17:44:06.141Z,16.40
2019-03-16T17:46:56.594Z,9.73
2019-03-16T17:49:47.519Z,22.50
2019-03-16T17:52:38.323Z,16.87
2019-03-16T17:55:28.256Z,6.65
2019-03-16T17:58:18.121Z,12.23
2019-03-16T18:01:07.963Z,15.18
2019-03-16T18:03:57.907Z,19.90
2019-03-16T18:06:47.753Z,23.02
2019-03-16T18:09:37.390Z,18.30
2019-03-16T18:12:27.102Z,9.55
2019-03-16T18:15:16.925Z,8.90
2019-03-16T18:18:06.902Z,14.70
2019-03-16T18:20:56.692Z,18.82
2019-03-16T18:23:46.218Z,9.85
2019-03-16T18:26:36.259Z,11.73
2019-03-16T18:29:25.926Z,19.02
2019-03-16T18:32:16.092Z,15.40
2019-03-16T18:35:05.799Z,17.73
2019-03-16T18:37:55.584Z,20.00
2019-03-16T18:40:45.477Z,13.78
2019-03-16T18:43:35.335Z,15.03
2019-03-16T18:46:25.204Z,19.98
2019-03-16T18:49:15.441Z,16.20
2019-03-16T18:52:04.956Z,13.85
2019-03-16T18:54:54.961Z,13.15
2019-03-16T18:57:44.947Z,13.85
2019-03-16T19:00:34.597Z,15.75
2019-03-16T19:03:25.106Z,22.80
2019-03-16T19:06:14.605Z,26.82
2019-03-16T19:09:07.727Z,11.78
2019-03-16T19:11:57.725Z,15.63
2019-03-16T19:14:47.422Z,9.48
2019-03-16T19:17:37.534Z,14.93
2019-03-16T19:20:27.162Z,14.60
2019-03-16T19:23:16.764Z,9.05
2019-03-16T19:26:06.519Z,22.27
2019-03-16T19:28:56.083Z,15.72
2019-03-16T19:31:45.884Z,14.60
2019-03-16T19:34:36.141Z,14.18
2019-03-16T19:37:25.967Z,18.65
2019-03-16T19:40:15.944Z,11.80
2019-03-16T19:43:05.704Z,13.78
2019-03-16T19:45:55.677Z,11.80
2019-03-16T19:48:45.804Z,16.93
2019-03-16T19:51:35.432Z,10.28
2019-03-16T19:54:25.084Z,12.07
2019-03-16T19:57:16.271Z,15.08
2019-03-16T20:00:06.757Z,9.63
2019-03-16T20:02:56.822Z,13.15
2019-03-16T20:05:46.403Z,12.45
2019-03-16T20:08:36.582Z,23.50
2019-03-16T20:11:26.254Z,13.20
2019-03-16T20:14:16.386Z,16.82
2019-03-16T20:17:17.326Z,9.40
2019-03-16T20:20:08.560Z,10.90
2019-03-16T20:22:58.485Z,15.60
2019-03-16T20:25:48.573Z,14.83
2019-03-16T20:28:38.473Z,12.23
2019-03-16T20:31:27.937Z,17.30
2019-03-16T20:34:17.821Z,15.85
2019-03-16T20:37:07.738Z,11.70
2019-03-16T20:39:57.915Z,13.30
2019-03-16T20:42:47.683Z,16.10
2019-03-16T20:45:37.616Z,21.02
2019-03-16T20:48:27.640Z,15.63
2019-03-16T20:51:17.536Z,13.55
2019-03-16T20:54:07.406Z,18.90
2019-03-16T20:56:57.025Z,20.05
2019-03-16T20:59:46.936Z,15.43
2019-03-16T21:02:36.836Z,15.90
2019-03-16T21:05:26.503Z,17.65
2019-03-16T21:08:16.314Z,18.32
2019-03-16T21:11:06.268Z,16.05
2019-03-16T21:13:56.409Z,11.45
2019-03-16T21:16:45.933Z,22.27
2019-03-16T21:19:35.724Z,12.65
2019-03-16T21:22:35.308Z,16.27
2019-03-16T21:25:17.584Z,20.20
2019-03-16T21:28:07.318Z,10.28
2019-03-16T21:30:56.807Z,11.40
2019-03-16T21:33:46.186Z,9.83
2019-03-16T21:36:41.441Z,13.45
2019-03-16T21:39:27.265Z,12.58
2019-03-16T21:42:17.165Z,7.78
2019-03-16T21:45:07.235Z,21.23
2019-03-16T21:48:00.244Z,10.75
2019-03-16T21:50:48.551Z,7.28
2019-03-16T21:53:38.324Z,24.57
2019-03-16T21:56:27.982Z,9.00
2019-03-16T21:59:17.618Z,8.08
2019-03-16T22:02:08.793Z,15.25
2019-03-16T22:04:58.169Z,8.80
2019-03-16T22:07:47.726Z,7.35
2019-03-16T22:10:37.828Z,13.78
2019-03-16T22:13:27.808Z,13.62
2019-03-16T22:16:17.686Z,9.40
2019-03-16T22:19:07.688Z,9.65
2019-03-16T22:21:57.734Z,10.43
2019-03-16T22:24:47.636Z,10.98
2019-03-16T22:27:37.572Z,15.43
2019-03-16T22:30:27.281Z,17.85
2019-03-16T22:33:17.274Z,19.75
2019-03-16T22:36:07.567Z,10.50
2019-03-16T22:38:57.834Z,6.75
2019-03-16T22:41:48.241Z,9.80
2019-03-16T22:44:38.292Z,11.03
2019-03-16T22:47:28.026Z,12.65
2019-03-16T22:50:18.266Z,6.42
2019-03-16T22:53:07.987Z,9.75
2019-03-16T22:55:57.867Z,7.08
2019-03-16T22:58:47.732Z,8.53
2019-03-16T23:01:38.026Z,15.48
2019-03-16T23:04:28.124Z,9.43
2019-03-16T23:07:17.772Z,15.95
2019-03-16T23:10:08.509Z,8.48
2019-03-16T23:12:58.177Z,9.83
2019-03-16T23:15:47.855Z,6.65
2019-03-16T23:18:38.034Z,8.75
2019-03-16T23:21:27.721Z,5.45
2019-03-16T23:24:17.785Z,8.90
2019-03-16T23:27:07.778Z,13.08
2019-03-16T23:29:57.386Z,7.75
2019-03-16T23:32:47.032Z,8.60
2019-03-16T23:35:36.711Z,6.75
2019-03-16T23:38:27.547Z,7.67
2019-03-16T23:41:17.285Z,8.65
2019-03-16T23:44:07.998Z,9.78
2019-03-16T23:46:57.862Z,11.45
2019-03-16T23:49:47.573Z,14.98
2019-03-16T23:52:37.819Z,12.23
2019-03-16T23:55:27.124Z,13.62
2019-03-16T23:58:16.925Z,11.08
